KDUA/DUA METAR and TAF weather

Enter ICAO airport designator
Station Type Date Time Source
KDUA METAR 2021/07/27 21:55 UTC NOAA

KDUA 272155Z AUTO 18010KT 10SM SCT095 33/20 A2998 RMK AO2


Station Type Date Time Source
KDUA Decoded METAR 2021/07/27 21:55 UTC NOAA

Durant, Eaker Field Airport, OK, United States (KDUA) 33-56-32N 096-23-40W
Jul 27, 2021 - 05:55 PM EDT / 2021.07.27 2155 UTC
Wind: from the S (180 degrees) at 12 MPH (10 KT):0
Visibility: 10 mile(s):0
Sky conditions: partly cloudy
Temperature: 91 F (33 C)
Heat index: 94.6 F (34.8 C):1
Dew Point: 68 F (20 C)
Relative Humidity: 46%
Pressure (altimeter): 29.98 in. Hg (1015 hPa)
ob: KDUA 272155Z AUTO 18010KT 10SM SCT095 33/20 A2998 RMK AO2
cycle: 22

Station Type Date Time Source
KDUA TAF UTC NOAA

Error!

Example: see airport list